Time;durP1;ratioP1;P1;durP2;ratioP2;P2;SDS_P1;SDS_P2;PMS_P1;PMS_P2;Temp;Humidity;BMP_temperature;BMP_pressure;BME280_temperature;BME280_humidity;BME280_pressure;Samples;Min_cycle;Max_cycle;Signal;HPM_P1;HPM_P2
2024/01/15 00:01:58;;;;;;;7.60;5.30;;;;;;;1.66;90.43;98346.28;112902;242;38262;-71
2024/01/15 00:04:32;;;;;;;9.00;6.70;;;;;;;1.67;90.29;98345.39;112915;242;38908;-70
2024/01/15 00:07:06;;;;;;;9.00;6.60;;;;;;;1.65;90.36;98338.75;112882;242;38368;-70
2024/01/15 00:09:40;;;;;;;9.30;7.00;;;;;;;1.64;90.49;98334.84;112813;242;172599;-70
2024/01/15 00:12:14;;;;;;;9.80;7.20;;;;;;;1.63;90.50;98325.77;112893;242;39434;-71
2024/01/15 00:14:49;;;;;;;10.60;8.00;;;;;;;1.58;90.59;98320.94;112935;242;38525;-70
2024/01/15 00:17:22;;;;;;;10.40;7.10;;;;;;;1.57;90.51;98313.94;112893;242;38865;-70
2024/01/15 00:19:56;;;;;;;17.30;12.50;;;;;;;1.59;90.53;98311.33;112908;242;38806;-69
2024/01/15 00:22:30;;;;;;;9.50;7.30;;;;;;;1.62;90.69;98305.34;112907;242;39724;-69
2024/01/15 00:25:04;;;;;;;11.40;7.90;;;;;;;1.65;90.71;98298.38;112880;242;39184;-69
2024/01/15 00:27:38;;;;;;;12.40;8.20;;;;;;;1.64;90.59;98293.26;112867;242;38528;-69
2024/01/15 00:30:14;;;;;;;12.80;9.00;;;;;;;1.59;90.61;98291.88;112905;242;38329;-70
2024/01/15 00:32:48;;;;;;;13.00;10.00;;;;;;;1.56;90.61;98286.83;112877;242;38275;-70
2024/01/15 00:35:22;;;;;;;12.10;8.10;;;;;;;1.54;90.55;98277.98;112895;242;38499;-70
2024/01/15 00:37:56;;;;;;;8.70;7.70;;;;;;;1.55;90.62;98276.89;112896;242;39518;-69
2024/01/15 00:40:29;;;;;;;10.40;7.70;;;;;;;1.57;90.61;98268.91;112770;242;39218;-69
2024/01/15 00:43:04;;;;;;;11.60;8.20;;;;;;;1.59;90.62;98267.83;112889;242;39476;-70
2024/01/15 00:45:38;;;;;;;12.70;8.40;;;;;;;1.59;90.68;98264.39;112884;242;39412;-70
2024/01/15 00:48:11;;;;;;;12.70;8.30;;;;;;;1.57;90.71;98260.52;112868;242;39918;-69
2024/01/15 00:50:45;;;;;;;10.50;7.50;;;;;;;1.49;90.32;98260.25;112851;242;38572;-69
2024/01/15 00:53:19;;;;;;;9.60;7.20;;;;;;;1.49;90.54;98261.11;112875;242;39483;-68
2024/01/15 00:55:53;;;;;;;11.00;8.30;;;;;;;1.51;90.54;98258.45;112709;242;39937;-68
2024/01/15 00:58:28;;;;;;;12.20;8.70;;;;;;;1.53;90.89;98257.52;112904;242;39626;-68
2024/01/15 01:01:01;;;;;;;12.10;9.50;;;;;;;1.54;90.89;98251.46;112877;242;39258;-68
2024/01/15 01:03:35;;;;;;;12.30;8.90;;;;;;;1.51;90.95;98248.48;112894;242;38267;-68
2024/01/15 01:06:09;;;;;;;12.50;8.10;;;;;;;1.50;90.96;98247.52;112864;242;40047;-68
2024/01/15 01:08:43;;;;;;;10.20;7.70;;;;;;;1.45;90.94;98247.00;112856;242;39708;-68
2024/01/15 01:11:18;;;;;;;11.40;8.20;;;;;;;1.44;90.94;98244.48;112887;242;39825;-68
2024/01/15 01:13:52;;;;;;;11.30;7.90;;;;;;;1.46;91.03;98241.47;112863;242;38712;-70
2024/01/15 01:16:25;;;;;;;13.50;9.30;;;;;;;1.47;91.18;98235.76;112914;242;39456;-70
2024/01/15 01:18:59;;;;;;;11.30;9.20;;;;;;;1.48;91.44;98232.30;112965;242;39647;-70
2024/01/15 01:21:33;;;;;;;12.40;9.30;;;;;;;1.48;91.51;98232.98;112966;242;39571;-70
2024/01/15 01:24:06;;;;;;;15.30;9.40;;;;;;;1.49;91.41;98229.66;112947;242;38431;-69
2024/01/15 01:26:40;;;;;;;11.70;8.40;;;;;;;1.53;91.49;98227.80;112753;242;39443;-69
2024/01/15 01:29:14;;;;;;;9.40;7.50;;;;;;;1.57;91.33;98230.73;112658;242;38393;-70
2024/01/15 01:31:48;;;;;;;10.90;8.20;;;;;;;1.58;91.22;98227.14;112878;242;40269;-70
2024/01/15 01:34:22;;;;;;;12.30;9.10;;;;;;;1.54;91.23;98225.20;112872;242;39832;-70
2024/01/15 01:36:57;;;;;;;12.40;8.80;;;;;;;1.52;91.43;98220.28;112913;242;38923;-71
2024/01/15 01:39:31;;;;;;;14.20;9.40;;;;;;;1.50;91.41;98218.65;112907;242;39089;-69
2024/01/15 01:42:05;;;;;;;12.80;9.40;;;;;;;1.48;91.31;98210.66;112917;242;40162;-69
2024/01/15 01:44:39;;;;;;;10.80;8.20;;;;;;;1.49;91.36;98207.00;112994;242;39461;-68
2024/01/15 01:47:14;;;;;;;12.20;9.00;;;;;;;1.52;91.41;98205.16;112930;242;38726;-68
2024/01/15 01:49:48;;;;;;;13.00;9.80;;;;;;;1.53;91.39;98195.52;112981;242;38274;-70
2024/01/15 01:52:21;;;;;;;14.80;10.10;;;;;;;1.51;91.40;98195.40;112948;242;38749;-69
2024/01/15 01:54:55;;;;;;;12.80;10.10;;;;;;;1.53;91.68;98199.12;112210;242;913194;-70
2024/01/15 01:57:29;;;;;;;11.90;9.40;;;;;;;1.51;91.45;98194.56;112960;242;38275;-69
2024/01/15 02:00:04;;;;;;;10.30;8.90;;;;;;;1.50;91.38;98189.44;112966;242;39836;-69
2024/01/15 02:02:38;;;;;;;11.70;8.30;;;;;;;1.51;91.36;98185.25;112643;242;38494;-68
2024/01/15 02:05:13;;;;;;;11.00;9.10;;;;;;;1.54;91.35;98184.65;112921;242;38362;-68
2024/01/15 02:07:46;;;;;;;12.60;9.20;;;;;;;1.54;91.27;98184.83;112914;242;38564;-70
2024/01/15 02:10:21;;;;;;;13.80;10.00;;;;;;;1.53;91.32;98184.88;112837;243;175177;-70
2024/01/15 02:12:54;;;;;;;14.70;10.40;;;;;;;1.51;91.32;98177.91;112923;242;39782;-69
2024/01/15 02:15:28;;;;;;;13.40;8.80;;;;;;;1.50;91.32;98176.73;112990;242;38602;-69
2024/01/15 02:18:03;;;;;;;10.90;8.80;;;;;;;1.51;91.23;98172.23;112985;242;38875;-69
2024/01/15 02:20:37;;;;;;;12.00;9.00;;;;;;;1.50;90.95;98164.70;112961;242;38827;-69
2024/01/15 02:23:15;;;;;;;13.50;9.70;;;;;;;1.49;91.27;98156.65;112978;242;38314;-68
2024/01/15 02:25:49;;;;;;;14.00;10.70;;;;;;;1.51;91.32;98150.03;112935;242;39451;-68
2024/01/15 02:28:23;;;;;;;13.60;10.80;;;;;;;1.46;91.10;98146.77;112999;242;39790;-68
2024/01/15 02:30:56;;;;;;;15.20;9.90;;;;;;;1.41;91.15;98147.84;112943;242;38555;-68
2024/01/15 02:33:30;;;;;;;13.30;9.80;;;;;;;1.37;91.11;98140.07;112951;242;39144;-69
2024/01/15 02:36:04;;;;;;;12.80;9.20;;;;;;;1.38;91.04;98136.80;112936;242;39341;-69
2024/01/15 02:38:38;;;;;;;12.50;9.60;;;;;;;1.40;91.20;98139.32;112990;242;38564;-69
2024/01/15 02:41:14;;;;;;;13.20;10.20;;;;;;;1.43;91.31;98133.34;112964;242;39477;-69
2024/01/15 02:43:47;;;;;;;12.70;10.40;;;;;;;1.42;91.25;98130.46;112966;242;38553;-70
2024/01/15 02:46:21;;;;;;;14.00;10.80;;;;;;;1.41;91.36;98128.77;112980;242;38543;-70
2024/01/15 02:48:55;;;;;;;12.60;10.10;;;;;;;1.40;91.39;98121.27;112965;242;39993;-70
2024/01/15 02:51:29;;;;;;;14.80;10.80;;;;;;;1.40;91.23;98113.71;112987;242;38269;-70
2024/01/15 02:54:03;;;;;;;13.10;10.20;;;;;;;1.40;91.16;98112.68;112798;242;38620;-70
2024/01/15 02:56:37;;;;;;;14.80;11.00;;;;;;;1.39;91.00;98108.23;112927;242;39734;-70
2024/01/15 02:59:11;;;;;;;14.90;10.50;;;;;;;1.39;91.04;98099.65;112938;242;39502;-68
2024/01/15 03:01:44;;;;;;;14.20;10.80;;;;;;;1.38;91.10;98089.38;112956;242;39814;-68
2024/01/15 03:04:18;;;;;;;13.20;10.30;;;;;;;1.35;91.22;98088.13;112992;242;39482;-69
2024/01/15 03:06:52;;;;;;;12.90;10.10;;;;;;;1.33;91.21;98084.77;112675;242;38604;-69
2024/01/15 03:09:26;;;;;;;14.70;10.40;;;;;;;1.36;91.33;98078.30;112982;242;38651;-70
2024/01/15 03:11:59;;;;;;;12.70;10.00;;;;;;;1.38;91.39;98073.08;112910;242;38266;-70
2024/01/15 03:14:33;;;;;;;15.20;10.90;;;;;;;1.43;91.58;98073.73;112822;242;175170;-70
2024/01/15 03:17:09;;;;;;;13.70;11.30;;;;;;;1.43;91.46;98074.76;112869;242;38259;-70
2024/01/15 03:19:42;;;;;;;15.40;11.80;;;;;;;1.41;91.50;98068.65;112849;242;39477;-70
2024/01/15 03:22:17;;;;;;;14.10;11.10;;;;;;;1.36;91.28;98069.35;112840;242;40050;-70
2024/01/15 03:24:50;;;;;;;13.20;10.20;;;;;;;1.34;91.46;98065.14;112833;242;38796;-68
2024/01/15 03:27:25;;;;;;;13.90;9.90;;;;;;;1.34;91.48;98060.69;112839;242;40366;-69
2024/01/15 03:29:59;;;;;;;14.70;10.90;;;;;;;1.34;91.58;98057.95;112858;242;38512;-69
2024/01/15 03:32:33;;;;;;;13.40;11.00;;;;;;;1.36;91.64;98052.36;112849;242;38306;-70
2024/01/15 03:35:08;;;;;;;13.90;10.20;;;;;;;1.36;91.67;98049.08;112877;242;39543;-70
2024/01/15 03:37:42;;;;;;;14.10;11.20;;;;;;;1.34;91.69;98044.19;112873;242;38344;-68
2024/01/15 03:40:17;;;;;;;14.30;10.40;;;;;;;1.34;91.78;98041.45;112883;242;38270;-68
2024/01/15 03:42:50;;;;;;;13.70;10.20;;;;;;;1.33;91.70;98038.73;112935;242;38184;-69
2024/01/15 03:45:24;;;;;;;13.70;9.80;;;;;;;1.29;91.62;98038.19;112839;242;38440;-69
2024/01/15 03:47:58;;;;;;;13.10;10.40;;;;;;;1.28;91.72;98030.48;112879;242;38240;-70
2024/01/15 03:50:32;;;;;;;15.00;11.10;;;;;;;1.28;91.67;98025.50;112842;242;38849;-70
2024/01/15 03:53:06;;;;;;;14.80;11.00;;;;;;;1.29;91.78;98022.73;112901;242;38309;-69
2024/01/15 03:55:40;;;;;;;12.40;9.70;;;;;;;1.25;91.67;98026.17;112854;242;38250;-69
2024/01/15 03:58:14;;;;;;;13.70;9.50;;;;;;;1.23;91.75;98022.42;112858;242;38546;-71
2024/01/15 04:00:48;;;;;;;13.40;9.10;;;;;;;1.25;91.84;98013.44;112868;242;38546;-71
2024/01/15 04:03:22;;;;;;;13.70;9.70;;;;;;;1.27;91.81;98009.04;112853;242;39153;-70
2024/01/15 04:05:56;;;;;;;15.00;10.80;;;;;;;1.27;91.77;98009.75;112805;242;38356;-70
2024/01/15 04:08:31;;;;;;;13.80;10.30;;;;;;;1.25;91.80;98004.02;112838;242;39783;-68
2024/01/15 04:11:05;;;;;;;16.40;10.50;;;;;;;1.19;91.70;97999.23;112842;242;38345;-68
2024/01/15 04:13:39;;;;;;;14.10;10.20;;;;;;;1.17;91.74;97991.59;112848;242;38537;-71
2024/01/15 04:16:12;;;;;;;11.40;9.20;;;;;;;1.17;91.80;97989.17;112832;242;38415;-71
2024/01/15 04:18:46;;;;;;;13.40;9.40;;;;;;;1.21;91.89;97981.46;112867;242;38687;-70
2024/01/15 04:21:21;;;;;;;13.00;9.60;;;;;;;1.26;92.07;97979.54;112855;242;38388;-70
2024/01/15 04:23:55;;;;;;;14.40;10.80;;;;;;;1.26;91.82;97974.41;112902;242;40021;-70
2024/01/15 04:26:28;;;;;;;12.10;9.60;;;;;;;1.25;91.71;97970.34;112884;242;38673;-70
2024/01/15 04:29:02;;;;;;;12.60;9.40;;;;;;;1.24;91.67;97960.25;112884;242;38645;-69
2024/01/15 04:31:36;;;;;;;12.50;9.20;;;;;;;1.25;91.51;97953.85;112870;242;39326;-69
2024/01/15 04:34:10;;;;;;;10.50;8.70;;;;;;;1.28;91.53;97946.34;112867;242;39106;-70
2024/01/15 04:36:46;;;;;;;13.40;9.80;;;;;;;1.28;91.29;97937.91;112887;242;38306;-70
2024/01/15 04:39:20;;;;;;;13.50;9.70;;;;;;;1.26;91.38;97938.00;112823;242;39867;-68
2024/01/15 04:41:54;;;;;;;13.20;9.60;;;;;;;1.24;91.38;97937.73;112862;242;38809;-68
2024/01/15 04:44:28;;;;;;;11.80;8.70;;;;;;;1.23;91.35;97940.87;112834;242;39746;-69
2024/01/15 04:47:02;;;;;;;11.50;8.80;;;;;;;1.27;91.53;97938.48;112859;242;39182;-69
2024/01/15 04:49:36;;;;;;;11.30;8.90;;;;;;;1.32;91.32;97937.27;112872;242;38883;-69
2024/01/15 04:52:10;;;;;;;11.10;9.10;;;;;;;1.31;90.92;97935.23;112858;242;38489;-69
2024/01/15 04:54:44;;;;;;;10.30;9.00;;;;;;;1.28;91.03;97933.63;112831;242;38270;-68
2024/01/15 04:57:18;;;;;;;12.20;9.40;;;;;;;1.27;91.02;97932.11;112895;242;38673;-68
2024/01/15 04:59:52;;;;;;;11.40;8.60;;;;;;;1.25;91.11;97930.48;112882;242;38999;-69
2024/01/15 05:02:26;;;;;;;10.70;8.30;;;;;;;1.24;91.02;97924.33;112886;242;39498;-69
2024/01/15 05:05:00;;;;;;;10.20;7.70;;;;;;;1.25;90.94;97928.07;112604;242;334613;-70
2024/01/15 05:07:34;;;;;;;10.20;8.10;;;;;;;1.27;90.88;97929.52;112826;242;38520;-70
2024/01/15 05:10:09;;;;;;;11.40;8.60;;;;;;;1.26;90.84;97925.64;112871;242;38981;-70
2024/01/15 05:12:43;;;;;;;12.00;9.30;;;;;;;1.26;90.89;97921.15;112866;242;38302;-69
2024/01/15 05:15:17;;;;;;;11.60;9.10;;;;;;;1.27;91.01;97916.48;112674;242;38637;-70
2024/01/15 05:17:51;;;;;;;11.40;9.20;;;;;;;1.27;91.08;97914.58;112889;242;38113;-69
2024/01/15 05:20:26;;;;;;;10.60;8.40;;;;;;;1.28;90.89;97912.49;112855;242;38475;-70
2024/01/15 05:23:00;;;;;;;9.60;8.10;;;;;;;1.30;90.92;97913.11;112840;242;38446;-69
2024/01/15 05:25:34;;;;;;;10.20;8.10;;;;;;;1.35;90.91;97907.95;112871;242;39514;-68
2024/01/15 05:28:08;;;;;;;10.40;8.20;;;;;;;1.37;90.89;97906.98;112828;242;38637;-68
2024/01/15 05:30:42;;;;;;;10.20;9.20;;;;;;;1.38;90.83;97900.09;112839;242;39406;-68
2024/01/15 05:33:16;;;;;;;11.50;9.90;;;;;;;1.34;90.69;97903.67;112859;242;38415;-70
2024/01/15 05:35:50;;;;;;;11.50;8.50;;;;;;;1.31;90.80;97907.06;112815;242;39738;-71
2024/01/15 05:38:23;;;;;;;9.70;8.40;;;;;;;1.29;90.70;97910.05;112825;242;40028;-70
2024/01/15 05:40:57;;;;;;;11.30;8.70;;;;;;;1.32;90.76;97905.33;112850;242;38938;-71
2024/01/15 05:43:31;;;;;;;11.50;8.80;;;;;;;1.35;90.69;97901.91;112809;242;38334;-69
2024/01/15 05:46:05;;;;;;;11.20;8.10;;;;;;;1.34;90.55;97898.72;112843;242;38429;-69
2024/01/15 05:48:38;;;;;;;11.10;8.80;;;;;;;1.36;90.82;97900.52;112846;242;38329;-68
2024/01/15 05:51:13;;;;;;;12.70;9.60;;;;;;;1.36;90.76;97901.20;112748;242;175213;-68
2024/01/15 05:53:46;;;;;;;11.50;9.20;;;;;;;1.33;90.66;97894.27;112886;242;39407;-70
2024/01/15 05:56:20;;;;;;;10.80;8.20;;;;;;;1.33;90.59;97897.20;112865;242;38659;-70
2024/01/15 05:58:54;;;;;;;10.10;7.70;;;;;;;1.33;90.49;97892.55;112840;242;38660;-70
2024/01/15 06:01:27;;;;;;;10.00;7.40;;;;;;;1.34;90.47;97888.73;112845;242;38310;-70
2024/01/15 06:04:01;;;;;;;10.10;8.10;;;;;;;1.33;90.37;97886.20;112863;242;38425;-68
2024/01/15 06:06:35;;;;;;;10.00;9.00;;;;;;;1.32;90.51;97883.85;112864;242;39251;-68
2024/01/15 06:09:09;;;;;;;12.70;9.50;;;;;;;1.31;90.61;97879.73;112890;242;39165;-70
2024/01/15 06:11:43;;;;;;;11.80;8.70;;;;;;;1.32;90.54;97878.67;112883;242;39615;-70
2024/01/15 06:14:17;;;;;;;11.10;8.70;;;;;;;1.33;90.44;97874.53;112853;242;38305;-70
2024/01/15 06:16:50;;;;;;;12.10;8.80;;;;;;;1.36;90.43;97871.13;112803;242;40350;-70
2024/01/15 06:19:24;;;;;;;10.60;9.10;;;;;;;1.37;90.40;97867.30;112849;242;39800;-70
2024/01/15 06:21:58;;;;;;;10.80;9.30;;;;;;;1.39;90.57;97869.15;112875;242;38927;-70
2024/01/15 06:24:32;;;;;;;10.30;8.70;;;;;;;1.36;90.26;97867.20;112858;242;40241;-68
2024/01/15 06:27:05;;;;;;;12.30;9.60;;;;;;;1.33;90.18;97864.58;112866;242;38833;-68
2024/01/15 06:29:45;;;;;;;10.90;8.50;;;;;;;1.32;90.13;97866.16;112866;242;38581;-68
2024/01/15 06:32:19;;;;;;;11.60;8.70;;;;;;;1.28;89.79;97861.48;112826;242;38633;-68
2024/01/15 06:34:53;;;;;;;11.10;9.30;;;;;;;1.29;89.96;97861.96;112827;242;39752;-70
2024/01/15 06:37:26;;;;;;;11.70;9.60;;;;;;;1.29;90.10;97858.00;112872;242;39706;-70
2024/01/15 06:40:00;;;;;;;13.20;9.80;;;;;;;1.29;90.16;97854.24;112849;242;39740;-70
2024/01/15 06:42:34;;;;;;;12.80;9.40;;;;;;;1.27;90.16;97850.34;112852;242;38372;-69
2024/01/15 06:45:10;;;;;;;11.10;8.70;;;;;;;1.29;90.19;97854.06;112746;242;40935;-70
2024/01/15 06:47:44;;;;;;;10.40;8.90;;;;;;;1.28;89.71;97855.65;112855;242;38541;-70
2024/01/15 06:50:18;;;;;;;9.80;8.10;;;;;;;1.30;89.94;97857.48;112870;242;39430;-70
2024/01/15 06:52:52;;;;;;;11.70;9.30;;;;;;;1.33;90.03;97857.02;112892;242;38860;-70
2024/01/15 06:55:26;;;;;;;12.10;9.90;;;;;;;1.34;90.00;97857.64;112848;242;38811;-70
2024/01/15 06:58:00;;;;;;;14.30;11.00;;;;;;;1.34;90.08;97860.06;112867;242;39769;-70
2024/01/15 07:00:34;;;;;;;12.20;9.80;;;;;;;1.32;89.94;97859.80;112813;242;38224;-70
2024/01/15 07:03:08;;;;;;;13.30;9.20;;;;;;;1.30;89.82;97863.66;112897;242;38344;-69
2024/01/15 07:05:42;;;;;;;11.70;8.90;;;;;;;1.28;89.58;97866.46;112838;242;39576;-69
2024/01/15 07:08:16;;;;;;;11.50;9.20;;;;;;;1.29;89.64;97862.67;112842;242;38251;-67
2024/01/15 07:10:50;;;;;;;12.30;9.60;;;;;;;1.31;89.87;97857.75;112885;242;38235;-68
2024/01/15 07:13:24;;;;;;;12.40;9.80;;;;;;;1.35;90.01;97861.06;112865;242;38511;-69
2024/01/15 07:15:58;;;;;;;13.90;10.80;;;;;;;1.34;90.00;97856.80;112910;242;39463;-69
2024/01/15 07:18:32;;;;;;;12.80;9.70;;;;;;;1.34;89.93;97857.16;112858;242;38349;-70
2024/01/15 07:21:07;;;;;;;11.50;9.70;;;;;;;1.33;89.75;97858.20;112817;242;39926;-70
2024/01/15 07:23:42;;;;;;;13.50;9.10;;;;;;;1.34;89.55;97859.70;112831;242;38802;-69
2024/01/15 07:26:18;;;;;;;11.60;9.50;;;;;;;1.36;89.68;97862.55;112869;242;38233;-69
2024/01/15 07:28:54;;;;;;;12.80;9.80;;;;;;;1.34;89.59;97863.66;112887;242;39970;-69
2024/01/15 07:31:28;;;;;;;12.20;10.00;;;;;;;1.33;89.85;97865.42;112888;242;38332;-70
2024/01/15 07:34:02;;;;;;;11.80;9.50;;;;;;;1.31;89.92;97865.66;112888;242;38413;-69
2024/01/15 07:36:36;;;;;;;11.40;9.60;;;;;;;1.24;89.93;97862.34;112737;242;38464;-70
2024/01/15 07:39:11;;;;;;;12.60;9.30;;;;;;;1.24;90.04;97865.09;112890;242;38830;-68
2024/01/15 07:41:44;;;;;;;10.00;8.10;;;;;;;1.28;90.18;97865.45;112884;242;38843;-68
2024/01/15 07:44:18;;;;;;;10.40;8.70;;;;;;;1.32;90.11;97866.66;112852;242;38428;-69
2024/01/15 07:46:52;;;;;;;11.30;8.90;;;;;;;1.34;90.28;97870.35;112888;242;38855;-69
2024/01/15 07:49:26;;;;;;;13.10;10.00;;;;;;;1.35;90.16;97873.77;112859;242;38478;-69
2024/01/15 07:51:59;;;;;;;12.70;9.60;;;;;;;1.33;90.15;97873.32;112861;242;40166;-69
2024/01/15 07:54:33;;;;;;;12.60;9.80;;;;;;;1.28;89.89;97869.39;112894;242;38339;-70
2024/01/15 07:57:08;;;;;;;11.70;9.20;;;;;;;1.27;89.96;97869.59;112870;242;39356;-70
2024/01/15 07:59:42;;;;;;;10.10;8.10;;;;;;;1.29;89.94;97880.36;112856;242;38433;-70
2024/01/15 08:02:18;;;;;;;12.00;8.90;;;;;;;1.31;90.10;97876.14;112838;242;39279;-71
2024/01/15 08:04:52;;;;;;;11.30;8.80;;;;;;;1.34;90.19;97880.32;112842;242;39472;-71
2024/01/15 08:07:27;;;;;;;12.20;8.90;;;;;;;1.36;90.44;97872.14;112862;242;38392;-69
2024/01/15 08:10:01;;;;;;;11.00;8.90;;;;;;;1.34;90.43;97873.11;112889;242;38820;-71
2024/01/15 08:12:35;;;;;;;10.10;8.40;;;;;;;1.34;90.52;97870.35;112837;242;40051;-69
2024/01/15 08:15:12;;;;;;;9.50;7.40;;;;;;;1.36;90.60;97876.95;112892;242;39748;-69
2024/01/15 08:17:46;;;;;;;9.50;7.60;;;;;;;1.42;90.74;97875.16;112868;242;38287;-70
2024/01/15 08:20:20;;;;;;;10.10;8.20;;;;;;;1.49;91.01;97873.70;112871;242;38726;-70
2024/01/15 08:22:55;;;;;;;9.90;8.20;;;;;;;1.55;91.02;97877.89;112864;242;38224;-68
2024/01/15 08:25:29;;;;;;;10.40;8.50;;;;;;;1.63;91.12;97877.75;112805;242;38272;-68
2024/01/15 08:28:02;;;;;;;9.50;8.00;;;;;;;1.72;91.10;97875.48;112863;242;38264;-68
2024/01/15 08:30:37;;;;;;;8.20;7.10;;;;;;;1.82;90.80;97873.69;112845;242;38657;-68
2024/01/15 08:33:10;;;;;;;8.40;7.40;;;;;;;1.94;90.68;97874.02;112868;242;38748;-69
2024/01/15 08:35:46;;;;;;;8.30;7.30;;;;;;;2.04;90.45;97877.70;112884;242;38505;-71
2024/01/15 08:38:21;;;;;;;8.40;7.40;;;;;;;2.13;90.12;97878.35;112877;242;38507;-70
2024/01/15 08:40:58;;;;;;;9.10;7.30;;;;;;;2.20;89.17;97876.64;112866;242;38318;-70
2024/01/15 08:43:32;;;;;;;8.60;7.10;;;;;;;2.23;88.80;97878.61;112884;242;38812;-71
2024/01/15 08:46:06;;;;;;;9.50;7.60;;;;;;;2.19;88.01;97871.89;112851;242;39571;-71
2024/01/15 08:48:41;;;;;;;8.90;7.40;;;;;;;2.12;87.89;97875.30;112866;242;38813;-69
2024/01/15 08:51:15;;;;;;;8.10;6.50;;;;;;;2.08;87.88;97874.98;112062;242;906985;-68
2024/01/15 08:53:49;;;;;;;7.40;6.30;;;;;;;2.03;87.66;97884.29;112917;242;39014;-70
2024/01/15 08:56:22;;;;;;;7.40;6.10;;;;;;;1.97;87.62;97888.16;112887;242;39464;-70
2024/01/15 08:58:56;;;;;;;7.70;5.90;;;;;;;1.93;87.87;97886.09;112874;242;38236;-70
2024/01/15 09:01:30;;;;;;;8.30;7.30;;;;;;;1.92;88.10;97886.33;112891;242;38255;-70
2024/01/15 09:04:04;;;;;;;8.90;7.70;;;;;;;1.90;88.30;97892.21;112875;242;38394;-70
2024/01/15 09:06:38;;;;;;;8.90;7.60;;;;;;;1.91;88.62;97892.36;112866;242;38795;-70
2024/01/15 09:09:12;;;;;;;9.80;8.00;;;;;;;1.92;88.62;97887.02;112854;242;38351;-71
2024/01/15 09:11:46;;;;;;;8.30;7.30;;;;;;;1.93;88.72;97885.59;112756;242;175042;-71
2024/01/15 09:14:22;;;;;;;9.80;6.70;;;;;;;1.98;88.79;97887.08;112744;242;38191;-69
2024/01/15 09:16:56;;;;;;;9.80;7.20;;;;;;;2.05;88.51;97890.04;112854;242;39392;-69
2024/01/15 09:19:30;;;;;;;8.00;7.10;;;;;;;2.14;88.59;97882.96;112850;242;38249;-68
2024/01/15 09:22:04;;;;;;;9.00;7.30;;;;;;;2.25;88.41;97887.11;112860;242;38281;-71
2024/01/15 09:24:38;;;;;;;9.30;7.20;;;;;;;2.36;88.69;97883.20;112862;242;38234;-73
2024/01/15 09:27:12;;;;;;;10.50;7.50;;;;;;;2.43;88.38;97884.77;112178;242;909826;-70
2024/01/15 09:29:47;;;;;;;8.50;7.00;;;;;;;2.45;88.18;97877.42;112831;242;39771;-69
2024/01/15 09:32:22;;;;;;;9.50;6.70;;;;;;;2.48;87.71;97876.94;112776;242;175078;-69
2024/01/15 09:34:56;;;;;;;10.20;7.60;;;;;;;2.54;87.17;97877.39;112904;242;38274;-70
2024/01/15 09:37:29;;;;;;;8.60;7.10;;;;;;;2.56;86.65;97876.25;112845;242;38480;-69
2024/01/15 09:40:05;;;;;;;8.60;6.70;;;;;;;2.64;87.09;97872.60;112836;242;39654;-69
2024/01/15 09:42:40;;;;;;;9.30;7.20;;;;;;;2.78;86.52;97876.80;112165;242;909176;-70
2024/01/15 09:45:14;;;;;;;8.30;6.80;;;;;;;2.84;85.67;97882.35;112887;242;38271;-71
2024/01/15 09:47:49;;;;;;;8.40;6.70;;;;;;;2.83;85.28;97881.04;112819;242;38275;-71
2024/01/15 09:50:23;;;;;;;8.40;7.00;;;;;;;2.79;84.47;97880.55;112866;242;38667;-71
2024/01/15 09:52:58;;;;;;;9.70;6.30;;;;;;;2.71;84.56;97877.98;112863;242;38394;-71
2024/01/15 09:55:32;;;;;;;10.10;6.10;;;;;;;2.66;84.27;97878.55;112870;242;40438;-69
2024/01/15 09:58:06;;;;;;;8.20;5.50;;;;;;;2.64;84.07;97873.98;112886;242;38915;-69
2024/01/15 10:00:41;;;;;;;8.20;5.40;;;;;;;2.65;83.89;97867.40;112845;242;38803;-69
2024/01/15 10:03:15;;;;;;;10.40;6.20;;;;;;;2.66;83.64;97863.41;112900;242;39014;-70
2024/01/15 10:05:50;;;;;;;8.60;5.50;;;;;;;2.67;82.96;97864.05;112842;242;38285;-71
2024/01/15 10:08:24;;;;;;;7.30;5.90;;;;;;;2.68;82.89;97868.16;112856;242;39102;-71
2024/01/15 10:10:59;;;;;;;10.00;5.50;;;;;;;2.66;82.63;97861.36;112871;242;38210;-72
2024/01/15 10:13:32;;;;;;;8.10;5.20;;;;;;;2.64;82.41;97854.19;112834;242;38401;-71
2024/01/15 10:16:06;;;;;;;7.20;5.10;;;;;;;2.63;82.37;97857.54;112861;242;39050;-71
2024/01/15 10:18:40;;;;;;;7.50;4.90;;;;;;;2.66;82.24;97861.70;112741;242;39966;-71
2024/01/15 10:21:14;;;;;;;7.70;5.40;;;;;;;2.68;81.69;97859.18;112834;242;39283;-71
2024/01/15 10:23:52;;;;;;;7.30;5.20;;;;;;;2.68;81.22;97858.31;112894;242;38298;-71
2024/01/15 10:26:28;;;;;;;8.20;5.60;;;;;;;2.67;80.82;97854.40;112828;242;40134;-71
2024/01/15 10:29:02;;;;;;;10.50;6.10;;;;;;;2.64;80.68;97856.46;112899;242;38339;-70
2024/01/15 10:31:37;;;;;;;8.90;5.90;;;;;;;2.58;80.65;97855.48;112849;242;38541;-71
2024/01/15 10:34:22;;;;;;;12.00;6.10;;;;;;;2.53;80.65;97849.89;112916;242;38644;-70
2024/01/15 10:36:59;;;;;;;11.40;6.00;;;;;;;2.50;80.77;97845.90;112777;242;38668;-71
2024/01/15 10:39:34;;;;;;;9.70;6.40;;;;;;;2.53;80.91;97850.56;112880;242;38013;-70
2024/01/15 10:42:09;;;;;;;10.70;6.50;;;;;;;2.58;81.09;97857.91;112859;242;38434;-70
2024/01/15 10:44:44;;;;;;;12.00;6.90;;;;;;;2.62;81.17;97862.56;112732;242;175106;-69
2024/01/15 10:47:18;;;;;;;10.80;6.80;;;;;;;2.65;81.24;97864.15;112908;242;38786;-69
2024/01/15 10:49:52;;;;;;;11.40;6.80;;;;;;;2.66;80.95;97864.95;112843;242;40219;-71
2024/01/15 10:52:26;;;;;;;10.30;6.20;;;;;;;2.68;81.24;97857.66;112848;242;40217;-70
2024/01/15 10:54:59;;;;;;;9.00;6.00;;;;;;;2.69;80.84;97860.66;112869;242;38457;-70
2024/01/15 10:57:33;;;;;;;8.00;5.80;;;;;;;2.72;80.59;97861.77;112857;242;38274;-71
2024/01/15 11:00:14;;;;;;;9.70;6.50;;;;;;;2.75;80.36;97863.66;112894;242;38227;-71
2024/01/15 11:02:48;;;;;;;9.80;6.40;;;;;;;2.73;80.53;97857.55;112845;242;39014;-70
2024/01/15 11:05:23;;;;;;;9.00;7.30;;;;;;;2.73;80.45;97862.92;112869;242;39549;-70
2024/01/15 11:08:00;;;;;;;9.80;6.50;;;;;;;2.70;80.12;97853.91;112844;242;38264;-70
2024/01/15 11:10:49;;;;;;;11.00;6.60;;;;;;;2.68;80.29;97859.73;112866;242;38375;-71
2024/01/15 11:13:40;;;;;;;9.30;6.40;;;;;;;2.65;80.19;97860.38;112750;242;175082;-71
2024/01/15 11:16:15;;;;;;;8.90;6.60;;;;;;;2.63;80.42;97858.22;112865;242;38454;-71
2024/01/15 11:19:07;;;;;;;7.90;6.40;;;;;;;2.64;80.59;97854.90;112905;242;38386;-70
2024/01/15 11:21:46;;;;;;;7.70;6.30;;;;;;;2.69;80.86;97849.69;112878;242;38392;-70
2024/01/15 11:24:40;;;;;;;10.70;7.00;;;;;;;2.72;80.62;97843.35;112841;242;38439;-70
2024/01/15 11:27:14;;;;;;;10.30;7.30;;;;;;;2.72;80.69;97838.69;112894;242;38613;-70
2024/01/15 11:29:49;;;;;;;9.90;7.30;;;;;;;2.69;80.68;97836.39;112836;242;39593;-71
2024/01/15 11:32:25;;;;;;;9.50;6.50;;;;;;;2.65;80.31;97839.69;112879;242;39790;-70
2024/01/15 11:35:01;;;;;;;8.40;5.60;;;;;;;2.66;80.20;97831.90;112856;242;38445;-71
2024/01/15 11:38:01;;;;;;;11.50;6.40;;;;;;;2.68;79.83;97828.88;112875;242;39527;-70
2024/01/15 11:40:45;;;;;;;10.20;6.20;;;;;;;2.68;79.70;97832.17;112861;242;39159;-70
2024/01/15 11:43:21;;;;;;;11.60;7.50;;;;;;;2.61;79.44;97830.45;112853;242;38339;-70
2024/01/15 11:45:57;;;;;;;10.10;6.60;;;;;;;2.55;79.42;97828.10;112843;242;39772;-70
2024/01/15 11:48:33;;;;;;;9.00;6.70;;;;;;;2.45;79.38;97828.73;112834;242;38339;-69
2024/01/15 11:51:07;;;;;;;12.00;6.90;;;;;;;2.39;79.35;97832.46;112828;242;38539;-69
2024/01/15 11:53:46;;;;;;;11.10;6.40;;;;;;;2.37;79.94;97828.44;112843;242;38330;-69
2024/01/15 11:56:20;;;;;;;7.40;5.30;;;;;;;2.39;79.49;97822.16;112805;242;38543;-69
2024/01/15 11:58:54;;;;;;;7.20;5.30;;;;;;;2.42;79.05;97835.61;112854;242;38396;-69
2024/01/15 12:01:28;;;;;;;8.60;6.10;;;;;;;2.38;79.20;97829.58;112883;242;39236;-69
2024/01/15 12:04:02;;;;;;;8.40;5.80;;;;;;;2.40;79.74;97827.23;112859;242;38410;-69
2024/01/15 12:06:36;;;;;;;10.70;6.30;;;;;;;2.38;79.09;97830.13;112874;242;39748;-69
2024/01/15 12:09:13;;;;;;;9.90;6.10;;;;;;;2.36;79.31;97825.90;112870;242;38561;-70